Terminal Aerodrome Forecast
Issued by NWS North Platte, NE

Home | Current Version | Previous Version | Text Only | Print | Product List | Glossary Off
Versions: 1 2 3 4 5 6 7 8 9 10 11 12 13 14 15 16 17 18 19 20 21

328
FTUS43 KLBF 131721
TAFVTN
TAF
KVTN 131721Z 1318/1418 17011KT P6SM VCSH OVC025
     FM132300 18008KT 2SM -SN BKN030
     FM140500 29005KT 2SM BR VCSH OVC015
     FM141500 28008KT P6SM BKN050=

USA.gov is the U.S. government's official web portal to all federal, state and local government web resources and services.